createdAt,value
2018-11-01T00:01:35.317Z,6.93
2018-11-01T00:04:04.227Z,7.40
2018-11-01T00:06:32.375Z,6.27
2018-11-01T00:09:00.558Z,6.90
2018-11-01T00:11:28.882Z,7.43
2018-11-01T00:13:56.990Z,6.53
2018-11-01T00:16:25.144Z,6.13
2018-11-01T00:18:53.266Z,6.50
2018-11-01T00:21:21.422Z,5.00
2018-11-01T00:23:49.541Z,5.73
2018-11-01T00:26:17.714Z,5.20
2018-11-01T00:28:45.960Z,8.23
2018-11-01T00:31:14.099Z,5.83
2018-11-01T00:33:42.710Z,6.90
2018-11-01T00:36:10.809Z,6.00
2018-11-01T00:38:38.972Z,8.57
2018-11-01T00:41:07.118Z,6.27
2018-11-01T00:43:35.246Z,9.20
2018-11-01T00:46:03.362Z,7.60
2018-11-01T00:48:31.807Z,7.77
2018-11-01T00:50:59.958Z,5.70
2018-11-01T00:53:28.088Z,8.13
2018-11-01T00:55:56.218Z,5.57
2018-11-01T00:58:24.378Z,6.57
2018-11-01T01:00:52.522Z,5.60
2018-11-01T01:03:20.643Z,6.33
2018-11-01T01:05:49.029Z,5.93
2018-11-01T01:08:17.150Z,5.47
2018-11-01T01:10:45.322Z,6.37
2018-11-01T01:13:13.479Z,5.83
2018-11-01T01:15:41.632Z,6.33
2018-11-01T01:18:09.792Z,7.23
2018-11-01T01:20:37.924Z,6.20
2018-11-01T01:23:06.099Z,6.23
2018-11-01T01:25:34.216Z,5.90
2018-11-01T01:28:02.347Z,7.30
2018-11-01T01:30:30.518Z,5.33
2018-11-01T01:32:58.646Z,7.73
2018-11-01T01:35:26.782Z,5.63
2018-11-01T01:37:54.914Z,5.90
2018-11-01T01:40:23.050Z,5.13
2018-11-01T01:42:52.503Z,5.40
2018-11-01T01:45:21.354Z,6.87
2018-11-01T01:47:49.465Z,5.40
2018-11-01T01:50:18.227Z,5.77
2018-11-01T01:52:46.738Z,4.83
2018-11-01T01:55:14.849Z,6.37
2018-11-01T01:57:43.026Z,5.60
2018-11-01T02:00:13.422Z,5.43
2018-11-01T02:02:43.852Z,5.40
2018-11-01T02:05:12.002Z,4.07
2018-11-01T02:07:40.139Z,5.80
2018-11-01T02:10:10.078Z,5.40
2018-11-01T02:12:38.439Z,3.60
2018-11-01T02:15:09.621Z,4.25
2018-11-01T02:17:37.789Z,4.50
2018-11-01T02:20:07.763Z,3.87
2018-11-01T02:22:35.887Z,4.83
2018-11-01T02:25:04.150Z,5.00
2018-11-01T02:27:37.775Z,4.83
2018-11-01T02:30:07.787Z,4.17
2018-11-01T02:32:35.918Z,4.00
2018-11-01T02:35:04.099Z,5.60
2018-11-01T02:37:32.267Z,4.97
2018-11-01T02:40:00.431Z,4.50
2018-11-01T02:42:28.594Z,5.23
2018-11-01T02:44:56.721Z,4.13
2018-11-01T02:47:24.863Z,5.17
2018-11-01T02:49:53.021Z,4.03
2018-11-01T02:52:21.358Z,4.23
2018-11-01T02:54:49.506Z,4.33
2018-11-01T02:57:17.637Z,3.53
2018-11-01T02:59:45.981Z,3.30
2018-11-01T03:02:14.045Z,4.67
2018-11-01T03:04:42.212Z,5.63
2018-11-01T03:07:10.383Z,3.20
2018-11-01T03:09:38.558Z,3.80
2018-11-01T03:12:07.371Z,5.77
2018-11-01T03:14:35.494Z,3.77
2018-11-01T03:17:04.123Z,5.03
2018-11-01T03:19:32.214Z,4.00
2018-11-01T03:22:00.374Z,7.33
2018-11-01T03:24:28.962Z,4.63
2018-11-01T03:26:57.086Z,4.47
2018-11-01T03:29:25.210Z,3.63
2018-11-01T03:31:53.392Z,5.00
2018-11-01T03:34:21.495Z,5.43
2018-11-01T03:36:49.666Z,4.67
2018-11-01T03:39:17.838Z,2.83
2018-11-01T03:41:45.991Z,3.00
2018-11-01T03:44:14.139Z,5.00
2018-11-01T03:46:42.625Z,3.37
2018-11-01T03:49:10.783Z,2.90
2018-11-01T03:51:38.925Z,4.40
2018-11-01T03:54:07.342Z,4.07
2018-11-01T03:56:35.523Z,3.70
2018-11-01T03:59:03.730Z,3.63
2018-11-01T04:01:31.959Z,3.30
2018-11-01T04:04:00.140Z,3.73
2018-11-01T04:06:28.287Z,3.30
2018-11-01T04:08:56.428Z,4.13
2018-11-01T04:11:24.614Z,3.47
2018-11-01T04:13:53.130Z,5.27
2018-11-01T04:16:21.570Z,3.97
2018-11-01T04:18:49.706Z,3.40
2018-11-01T04:21:17.835Z,5.13
2018-11-01T04:23:46.087Z,3.30
2018-11-01T04:26:14.230Z,6.13
2018-11-01T04:28:42.454Z,5.80
2018-11-01T04:31:10.539Z,3.53
2018-11-01T04:33:38.839Z,4.57
2018-11-01T04:36:06.888Z,3.67
2018-11-01T04:38:34.989Z,3.97
2018-11-01T04:41:03.142Z,4.60
2018-11-01T04:43:31.295Z,4.83
2018-11-01T04:45:59.478Z,6.30
2018-11-01T04:48:27.590Z,5.07
2018-11-01T04:50:55.726Z,5.07
2018-11-01T04:53:23.914Z,7.37
2018-11-01T04:55:52.066Z,4.53
2018-11-01T04:58:20.187Z,6.57
2018-11-01T05:00:48.334Z,4.20
2018-11-01T05:03:16.520Z,7.23
2018-11-01T05:05:44.664Z,4.47
2018-11-01T05:08:12.862Z,8.37
2018-11-01T05:10:41.038Z,5.57
2018-11-01T05:13:09.223Z,7.10
2018-11-01T05:15:37.457Z,5.43
2018-11-01T05:18:05.785Z,4.50
2018-11-01T05:20:33.950Z,5.03
2018-11-01T05:23:02.111Z,6.77
2018-11-01T05:25:30.276Z,6.00
2018-11-01T05:27:58.437Z,5.07
2018-11-01T05:30:26.622Z,4.83
2018-11-01T05:32:54.766Z,4.63
2018-11-01T05:35:22.906Z,5.77
2018-11-01T05:37:51.156Z,5.90
2018-11-01T05:40:19.279Z,5.80
2018-11-01T05:42:47.442Z,5.40
2018-11-01T05:45:15.630Z,5.13
2018-11-01T05:47:43.802Z,5.77
2018-11-01T05:50:11.977Z,5.53
2018-11-01T05:52:40.106Z,5.60
2018-11-01T05:55:08.746Z,4.60
2018-11-01T05:57:37.042Z,4.30
2018-11-01T06:00:08.201Z,5.20
2018-11-01T06:02:38.521Z,5.30
2018-11-01T06:05:08.096Z,5.05
2018-11-01T06:07:39.378Z,5.70
2018-11-01T06:10:08.226Z,4.27
2018-11-01T06:12:36.870Z,5.43
2018-11-01T06:15:06.326Z,5.90
2018-11-01T06:17:34.454Z,6.03
2018-11-01T06:20:02.634Z,5.30
2018-11-01T06:22:30.749Z,4.70
2018-11-01T06:24:58.885Z,6.33
2018-11-01T06:27:27.074Z,6.67
2018-11-01T06:29:55.205Z,7.83
2018-11-01T06:32:23.387Z,6.70
2018-11-01T06:34:54.192Z,5.40
2018-11-01T06:37:22.332Z,5.10
2018-11-01T06:39:50.508Z,7.33
2018-11-01T06:42:18.682Z,6.53
2018-11-01T06:44:46.887Z,6.13
2018-11-01T06:47:15.010Z,6.93
2018-11-01T06:49:43.178Z,4.50
2018-11-01T06:52:11.347Z,6.13
2018-11-01T06:54:39.506Z,5.80
2018-11-01T06:57:07.693Z,6.47
2018-11-01T06:59:35.892Z,4.97
2018-11-01T07:02:04.034Z,5.40
2018-11-01T07:04:32.222Z,5.60
2018-11-01T07:07:00.391Z,5.47
2018-11-01T07:09:28.523Z,5.30
2018-11-01T07:11:56.678Z,5.47
2018-11-01T07:14:24.868Z,4.83
2018-11-01T07:16:53.131Z,5.57
2018-11-01T07:19:21.272Z,5.50
2018-11-01T07:21:49.406Z,5.00
2018-11-01T07:24:17.783Z,4.90
2018-11-01T07:26:45.984Z,6.23
2018-11-01T07:29:14.139Z,5.20
2018-11-01T07:31:42.332Z,4.67
2018-11-01T07:34:10.505Z,4.83
2018-11-01T07:36:38.652Z,4.73
2018-11-01T07:39:08.258Z,4.50
2018-11-01T07:41:37.118Z,4.40
2018-11-01T07:44:05.391Z,4.97
2018-11-01T07:46:33.546Z,5.37
2018-11-01T07:49:01.742Z,5.33
2018-11-01T07:51:29.881Z,5.03
2018-11-01T07:53:58.342Z,5.40
2018-11-01T07:56:26.486Z,5.13
2018-11-01T07:58:54.616Z,5.13
2018-11-01T08:01:22.795Z,4.47
2018-11-01T08:03:50.934Z,6.27
2018-11-01T08:06:19.139Z,8.20
2018-11-01T08:08:47.678Z,5.23
2018-11-01T08:11:15.835Z,6.27
2018-11-01T08:13:43.968Z,8.60
2018-11-01T08:16:12.144Z,6.00
2018-11-01T08:18:40.268Z,5.40
2018-11-01T08:21:08.935Z,5.03
2018-11-01T08:23:36.911Z,4.97
2018-11-01T08:26:05.069Z,7.10
2018-11-01T08:28:33.214Z,6.83
2018-11-01T08:31:01.362Z,4.87
2018-11-01T08:33:29.538Z,7.17
2018-11-01T08:35:57.692Z,6.07
2018-11-01T08:38:25.818Z,5.93
2018-11-01T08:40:54.203Z,5.70
2018-11-01T08:43:22.326Z,8.43
2018-11-01T08:45:50.458Z,5.30
2018-11-01T08:48:18.649Z,5.87
2018-11-01T08:50:46.810Z,5.73
2018-11-01T08:53:14.977Z,6.17
2018-11-01T08:55:43.135Z,6.53
2018-11-01T08:58:11.251Z,6.67
2018-11-01T09:00:39.427Z,6.53
2018-11-01T09:03:07.557Z,6.10
2018-11-01T09:05:35.710Z,4.87
2018-11-01T09:08:03.956Z,6.37
2018-11-01T09:10:32.370Z,7.20
2018-11-01T09:13:00.611Z,6.10
2018-11-01T09:15:28.826Z,7.90
2018-11-01T09:17:57.254Z,5.63
2018-11-01T09:20:25.431Z,9.73
2018-11-01T09:22:53.622Z,5.80
2018-11-01T09:25:21.769Z,6.60
2018-11-01T09:27:49.935Z,5.93
2018-11-01T09:30:18.074Z,6.07
2018-11-01T09:32:46.250Z,7.87
2018-11-01T09:35:14.369Z,6.33
2018-11-01T09:37:43.005Z,6.60
2018-11-01T09:40:12.634Z,6.60
2018-11-01T09:42:40.974Z,8.00
2018-11-01T09:45:09.270Z,7.30
2018-11-01T09:47:37.845Z,6.30
2018-11-01T09:50:07.448Z,6.43
2018-11-01T09:52:35.883Z,8.33
2018-11-01T09:55:04.287Z,7.60
2018-11-01T09:57:32.445Z,6.23
2018-11-01T10:00:00.966Z,6.33
2018-11-01T10:02:29.161Z,6.20
2018-11-01T10:04:57.455Z,6.07
2018-11-01T10:07:25.595Z,8.40
2018-11-01T10:09:53.887Z,6.50
2018-11-01T10:12:22.208Z,7.60
2018-11-01T10:14:50.374Z,7.37
2018-11-01T10:17:18.964Z,5.70
2018-11-01T10:19:46.709Z,5.33
2018-11-01T10:22:14.921Z,6.17
2018-11-01T10:24:43.138Z,6.77
2018-11-01T10:27:19.517Z,5.60
2018-11-01T10:29:40.152Z,6.40
2018-11-01T10:32:09.745Z,6.10
2018-11-01T10:34:39.097Z,5.97
2018-11-01T10:37:07.262Z,6.30
2018-11-01T10:39:35.439Z,7.73
2018-11-01T10:42:03.599Z,6.90
2018-11-01T10:44:31.776Z,5.93
2018-11-01T10:46:59.945Z,7.30
2018-11-01T10:49:28.130Z,6.27
2018-11-01T10:51:56.274Z,5.50
2018-11-01T10:54:24.557Z,9.30
2018-11-01T10:56:52.634Z,5.83
2018-11-01T10:59:20.799Z,6.00
2018-11-01T11:02:52.771Z,5.60
2018-11-01T11:05:22.037Z,6.83
2018-11-01T11:07:50.370Z,5.77
2018-11-01T11:10:18.982Z,6.00
2018-11-01T11:12:48.010Z,7.00
2018-11-01T11:15:16.186Z,6.63
2018-11-01T11:17:44.790Z,5.50
2018-11-01T11:20:13.641Z,5.63
2018-11-01T11:22:41.795Z,8.90
2018-11-01T11:25:11.310Z,5.67
2018-11-01T11:27:39.846Z,5.13
2018-11-01T11:30:09.561Z,6.70
2018-11-01T11:32:37.875Z,5.10
2018-11-01T11:35:06.279Z,6.83
2018-11-01T11:37:34.634Z,6.67
2018-11-01T11:40:02.888Z,4.97
2018-11-01T11:42:31.027Z,6.00
2018-11-01T11:44:59.281Z,5.33
2018-11-01T11:47:27.795Z,5.30
2018-11-01T11:49:56.101Z,6.37
2018-11-01T11:52:24.243Z,6.03
2018-11-01T11:54:52.389Z,4.83
2018-11-01T11:57:20.574Z,5.00
2018-11-01T11:59:48.750Z,4.90
2018-11-01T12:02:16.995Z,5.23
2018-11-01T12:04:45.385Z,4.40
2018-11-01T12:07:13.792Z,5.33
2018-11-01T12:09:42.036Z,4.57
2018-11-01T12:12:10.224Z,5.80
2018-11-01T12:14:38.442Z,6.30
2018-11-01T12:17:06.667Z,5.23
2018-11-01T12:19:34.930Z,4.60
2018-11-01T12:22:03.311Z,6.97
2018-11-01T12:24:31.816Z,4.60
2018-11-01T12:27:00.023Z,5.03
2018-11-01T12:29:28.185Z,5.67
2018-11-01T12:31:56.633Z,4.53
2018-11-01T12:34:24.934Z,5.37
2018-11-01T12:36:53.418Z,6.23
2018-11-01T12:39:21.619Z,9.37
2018-11-01T12:41:49.830Z,5.17
2018-11-01T12:44:18.018Z,4.93
2018-11-01T12:46:46.223Z,6.90
2018-11-01T12:49:14.623Z,5.43
2018-11-01T12:51:42.903Z,6.73
2018-11-01T12:54:11.155Z,5.20
2018-11-01T12:56:39.346Z,5.90
2018-11-01T12:59:08.203Z,5.23
2018-11-01T13:01:36.392Z,5.63
2018-11-01T13:04:04.665Z,5.13
2018-11-01T13:06:32.818Z,8.00
2018-11-01T13:09:00.970Z,7.10
2018-11-01T13:11:29.485Z,5.73
2018-11-01T13:13:57.689Z,5.27
2018-11-01T13:16:25.844Z,5.23
2018-11-01T13:18:54.025Z,6.50
2018-11-01T13:21:22.194Z,6.50
2018-11-01T13:23:50.373Z,5.70
2018-11-01T13:26:18.581Z,6.80
2018-11-01T13:28:46.734Z,6.27
2018-11-01T13:31:15.362Z,6.50
2018-11-01T13:33:43.571Z,6.87
2018-11-01T13:36:11.775Z,6.23
2018-11-01T13:38:40.023Z,6.17
2018-11-01T13:41:08.593Z,6.17
2018-11-01T13:43:36.407Z,7.07
2018-11-01T13:46:04.902Z,7.93
2018-11-01T13:48:33.166Z,12.67
2018-11-01T13:51:01.310Z,8.73
2018-11-01T13:53:29.517Z,6.67
2018-11-01T13:55:57.714Z,7.90
2018-11-01T13:58:25.926Z,7.20
2018-11-01T14:00:54.226Z,6.20
2018-11-01T14:03:22.430Z,5.90
2018-11-01T14:05:50.712Z,7.03
2018-11-01T14:08:18.904Z,6.40
2018-11-01T14:10:47.070Z,7.23
2018-11-01T14:13:15.376Z,6.70
2018-11-01T14:15:43.523Z,7.97
2018-11-01T14:18:11.610Z,6.90
2018-11-01T14:20:39.794Z,7.37
2018-11-01T14:23:07.956Z,7.43
2018-11-01T14:25:36.198Z,7.90
2018-11-01T14:28:04.566Z,6.90
2018-11-01T14:30:32.758Z,6.83
2018-11-01T14:33:00.956Z,8.47
2018-11-01T14:35:29.157Z,6.80
2018-11-01T14:37:57.412Z,7.27
2018-11-01T14:40:25.507Z,7.97
2018-11-01T14:42:53.731Z,7.57
2018-11-01T14:45:21.898Z,7.07
2018-11-01T14:47:50.061Z,7.23
2018-11-01T14:50:18.302Z,8.33
2018-11-01T14:52:47.119Z,8.63
2018-11-01T14:55:15.785Z,8.00
2018-11-01T14:57:44.216Z,10.37
2018-11-01T15:00:11.387Z,8.77
2018-11-01T15:02:39.558Z,7.80
2018-11-01T15:05:08.362Z,8.00
2018-11-01T15:07:36.552Z,7.67
2018-11-01T15:10:06.007Z,8.50
2018-11-01T15:12:34.165Z,7.90
2018-11-01T15:15:02.407Z,9.07
2018-11-01T15:17:30.605Z,8.47
2018-11-01T15:19:58.804Z,8.40
2018-11-01T15:22:26.968Z,8.63
2018-11-01T15:24:55.159Z,9.40
2018-11-01T15:27:23.319Z,9.47
2018-11-01T15:29:51.574Z,10.10
2018-11-01T15:32:25.199Z,9.77
2018-11-01T15:34:53.423Z,9.20
2018-11-01T15:37:21.790Z,9.07
2018-11-01T15:39:49.961Z,8.37
2018-11-01T15:42:18.163Z,8.90
2018-11-01T15:44:46.961Z,9.80
2018-11-01T15:47:15.115Z,11.03
2018-11-01T15:49:43.334Z,8.93
2018-11-01T15:52:11.654Z,9.50
2018-11-01T15:54:39.895Z,10.20
2018-11-01T15:57:08.042Z,9.03
2018-11-01T15:59:36.295Z,8.40
2018-11-01T16:02:04.730Z,10.40
2018-11-01T16:04:32.825Z,11.10
2018-11-01T16:07:00.982Z,8.63
2018-11-01T16:09:29.141Z,11.43
2018-11-01T16:11:57.310Z,9.77
2018-11-01T16:14:25.572Z,8.17
2018-11-01T16:16:53.713Z,8.33
2018-11-01T16:19:21.856Z,9.00
2018-11-01T16:21:49.998Z,8.90
2018-11-01T16:24:18.154Z,8.93
2018-11-01T16:26:46.285Z,8.93
2018-11-01T16:29:14.547Z,9.63
2018-11-01T16:31:42.713Z,10.50
2018-11-01T16:34:10.892Z,10.43
2018-11-01T16:36:39.244Z,10.27
2018-11-01T16:39:09.976Z,9.83
2018-11-01T16:41:38.264Z,9.67
2018-11-01T16:44:06.426Z,9.77
2018-11-01T16:46:34.571Z,9.67
2018-11-01T16:49:03.086Z,12.43
2018-11-01T16:51:31.236Z,10.40
2018-11-01T16:54:00.436Z,10.17
2018-11-01T16:56:29.640Z,12.03
2018-11-01T16:58:59.128Z,11.43
2018-11-01T17:01:27.998Z,15.23
2018-11-01T17:03:56.988Z,19.90
2018-11-01T17:06:26.186Z,19.83
2018-11-01T17:08:55.349Z,19.67
2018-11-01T17:11:24.372Z,18.40
2018-11-01T17:13:52.578Z,17.43
2018-11-01T17:16:20.714Z,12.83
2018-11-01T17:18:49.190Z,10.57
2018-11-01T17:21:17.356Z,11.63
2018-11-01T17:23:45.522Z,11.97
2018-11-01T17:26:13.694Z,10.97
2018-11-01T17:28:41.849Z,10.23
2018-11-01T17:31:10.018Z,9.60
2018-11-01T17:33:38.180Z,10.87
2018-11-01T17:36:06.390Z,11.83
2018-11-01T17:38:34.947Z,9.77
2018-11-01T17:41:03.139Z,9.70
2018-11-01T17:43:31.336Z,10.63
2018-11-01T17:45:59.544Z,11.33
2018-11-01T17:48:27.667Z,9.80
2018-11-01T17:50:55.845Z,9.73
2018-11-01T17:53:23.987Z,9.50
2018-11-01T17:55:52.150Z,10.13
2018-11-01T17:58:20.341Z,10.77
2018-11-01T18:00:48.547Z,10.60
2018-11-01T18:03:16.681Z,9.50
2018-11-01T18:05:44.882Z,10.00
2018-11-01T18:08:13.072Z,11.53
2018-11-01T18:10:41.186Z,10.27
2018-11-01T18:13:09.390Z,9.50
2018-11-01T18:15:37.529Z,9.93
2018-11-01T18:18:05.657Z,9.20
2018-11-01T18:20:33.854Z,10.50
2018-11-01T18:23:02.044Z,9.90
2018-11-01T18:25:30.217Z,9.47
2018-11-01T18:27:58.302Z,11.03
2018-11-01T18:30:26.499Z,9.63
2018-11-01T18:32:54.837Z,10.90
2018-11-01T18:35:22.810Z,10.33
2018-11-01T18:37:51.037Z,11.67
2018-11-01T18:40:19.207Z,9.40
2018-11-01T18:42:47.344Z,10.20
2018-11-01T18:45:15.880Z,8.07
2018-11-01T18:47:44.434Z,8.57
2018-11-01T18:50:14.080Z,7.90
2018-11-01T18:52:42.304Z,7.10
2018-11-01T18:55:11.532Z,6.53
2018-11-01T18:57:39.707Z,7.03
2018-11-01T19:00:10.049Z,5.70
2018-11-01T19:02:38.292Z,7.17
2018-11-01T19:05:08.097Z,5.67
2018-11-01T19:07:36.292Z,6.13
2018-11-01T19:10:04.656Z,5.80
2018-11-01T19:12:33.171Z,6.07
2018-11-01T19:15:01.309Z,7.03
2018-11-01T19:17:29.458Z,6.90
2018-11-01T19:19:57.626Z,6.27
2018-11-01T19:22:25.836Z,9.27
2018-11-01T19:24:54.004Z,7.93
2018-11-01T19:27:22.473Z,5.77
2018-11-01T19:29:50.345Z,8.50
2018-11-01T19:32:18.510Z,9.37
2018-11-01T19:34:46.674Z,8.37
2018-11-01T19:37:14.860Z,6.87
2018-11-01T19:39:42.997Z,6.17
2018-11-01T19:42:11.588Z,5.80
2018-11-01T19:44:39.899Z,6.27
2018-11-01T19:47:08.079Z,7.13
2018-11-01T19:49:36.582Z,5.47
2018-11-01T19:52:05.006Z,6.37
2018-11-01T19:54:33.218Z,7.77
2018-11-01T19:57:01.323Z,7.23
2018-11-01T19:59:29.543Z,6.80
2018-11-01T20:01:57.727Z,8.53
2018-11-01T20:04:25.965Z,7.90
2018-11-01T20:06:54.070Z,7.30
2018-11-01T20:09:22.248Z,8.80
2018-11-01T20:11:50.402Z,8.27
2018-11-01T20:14:18.571Z,8.20
2018-11-01T20:16:46.752Z,7.47
2018-11-01T20:19:15.072Z,7.37
2018-11-01T20:21:43.158Z,9.37
2018-11-01T20:24:11.232Z,8.70
2018-11-01T20:26:39.375Z,10.77
2018-11-01T20:29:07.766Z,8.53
2018-11-01T20:31:36.315Z,9.80
2018-11-01T20:34:04.907Z,9.67
2018-11-01T20:36:33.081Z,8.00
2018-11-01T20:39:01.292Z,7.40
2018-11-01T20:41:29.450Z,6.90
2018-11-01T20:43:57.706Z,7.07
2018-11-01T20:46:25.903Z,7.50
2018-11-01T20:48:54.045Z,6.93
2018-11-01T20:51:22.516Z,10.57
2018-11-01T20:53:50.625Z,7.50
2018-11-01T20:56:18.774Z,7.33
2018-11-01T20:58:46.962Z,7.00
2018-11-01T21:01:15.113Z,7.33
2018-11-01T21:03:43.252Z,7.13
2018-11-01T21:06:12.391Z,9.40
2018-11-01T21:08:40.809Z,7.00
2018-11-01T21:11:09.179Z,7.80
2018-11-01T21:13:37.218Z,7.80
2018-11-01T21:16:05.870Z,7.83
2018-11-01T21:18:34.038Z,7.90
2018-11-01T21:21:02.204Z,9.00
2018-11-01T21:23:30.382Z,8.10
2018-11-01T21:25:58.533Z,7.63
2018-11-01T21:28:26.726Z,8.07
2018-11-01T21:30:54.882Z,8.60
2018-11-01T21:33:23.177Z,8.87
2018-11-01T21:35:51.485Z,8.63
2018-11-01T21:38:19.563Z,8.90
2018-11-01T21:40:47.715Z,8.60
2018-11-01T21:43:15.970Z,7.93
2018-11-01T21:45:44.578Z,8.43
2018-11-01T21:48:12.738Z,7.97
2018-11-01T21:50:40.870Z,11.00
2018-11-01T21:53:09.574Z,7.73
2018-11-01T21:55:37.546Z,7.97
2018-11-01T21:58:06.049Z,8.20
2018-11-01T22:00:34.234Z,9.20
2018-11-01T22:03:02.816Z,8.17
2018-11-01T22:05:30.975Z,9.77
2018-11-01T22:07:59.197Z,8.10
2018-11-01T22:10:27.351Z,8.67
2018-11-01T22:12:55.618Z,8.37
2018-11-01T22:15:23.853Z,11.27
2018-11-01T22:17:52.014Z,10.30
2018-11-01T22:20:20.158Z,9.43
2018-11-01T22:22:48.338Z,8.23
2018-11-01T22:25:16.491Z,8.37
2018-11-01T22:27:44.674Z,11.30
2018-11-01T22:30:12.878Z,8.60
2018-11-01T22:32:42.027Z,8.57
2018-11-01T22:35:10.378Z,9.93
2018-11-01T22:37:39.217Z,8.57
2018-11-01T22:40:07.535Z,9.37
2018-11-01T22:42:35.724Z,10.37
2018-11-01T22:45:04.189Z,9.70
2018-11-01T22:47:32.357Z,8.27
2018-11-01T22:50:00.663Z,8.17
2018-11-01T22:52:28.929Z,8.50
2018-11-01T22:54:57.098Z,7.67
2018-11-01T22:57:25.354Z,7.57
2018-11-01T22:59:53.587Z,8.80
2018-11-01T23:02:21.665Z,7.63
2018-11-01T23:04:49.854Z,7.90
2018-11-01T23:07:18.035Z,8.87
2018-11-01T23:09:46.207Z,8.20
2018-11-01T23:12:14.371Z,8.67
2018-11-01T23:14:42.534Z,7.77
2018-11-01T23:17:10.818Z,7.10
2018-11-01T23:19:39.040Z,7.47
2018-11-01T23:22:07.191Z,7.03
2018-11-01T23:24:35.358Z,6.77
2018-11-01T23:27:03.796Z,6.43
2018-11-01T23:29:31.986Z,5.83
2018-11-01T23:32:00.116Z,6.83
2018-11-01T23:34:28.310Z,6.70
2018-11-01T23:37:01.838Z,6.73
2018-11-01T23:39:35.549Z,6.67
2018-11-01T23:42:09.002Z,6.80
2018-11-01T23:44:42.998Z,6.93
2018-11-01T23:47:16.550Z,6.87
2018-11-01T23:49:46.787Z,6.60
2018-11-01T23:52:19.550Z,7.03
2018-11-01T23:54:47.782Z,6.50
2018-11-01T23:57:16.032Z,8.97
2018-11-01T23:59:44.187Z,6.33
